createdAt,value
2022-11-08T00:00:01.486Z,44.00
2022-11-08T00:01:41.592Z,44.00
2022-11-08T00:04:12.774Z,43.90
2022-11-08T00:05:39.189Z,43.90
2022-11-08T00:07:03.742Z,43.90
2022-11-08T00:08:26.128Z,44.00
2022-11-08T00:10:26.458Z,43.90
2022-11-08T00:11:49.043Z,43.90
2022-11-08T00:13:13.716Z,43.90
2022-11-08T00:14:24.133Z,43.90
2022-11-08T00:15:26.745Z,44.00
2022-11-08T00:16:33.944Z,44.00
2022-11-08T00:17:40.229Z,43.90
2022-11-08T00:20:07.459Z,43.90
2022-11-08T00:21:12.428Z,43.90
2022-11-08T00:22:26.484Z,43.90
2022-11-08T00:23:35.946Z,43.90
2022-11-08T00:25:01.319Z,44.00
2022-11-08T00:26:04.334Z,43.90
2022-11-08T00:27:10.966Z,44.00
2022-11-08T00:28:14.588Z,43.90
2022-11-08T00:29:22.158Z,43.90
2022-11-08T00:30:29.302Z,44.00
2022-11-08T00:31:35.979Z,43.90
2022-11-08T00:32:46.098Z,43.90
2022-11-08T00:33:52.426Z,43.90
2022-11-08T00:34:56.445Z,43.90
2022-11-08T00:35:59.957Z,44.50
2022-11-08T00:39:46.140Z,43.90
2022-11-08T00:41:02.737Z,43.90
2022-11-08T00:42:06.128Z,43.90
2022-11-08T00:43:14.125Z,43.90
2022-11-08T00:44:19.206Z,43.90
2022-11-08T00:45:23.476Z,43.90
2022-11-08T00:46:35.050Z,43.90
2022-11-08T00:47:37.479Z,43.90
2022-11-08T00:48:42.804Z,43.90
2022-11-08T00:49:45.579Z,43.90
2022-11-08T00:50:51.862Z,43.90
2022-11-08T00:51:58.751Z,43.90
2022-11-08T00:53:09.902Z,43.90
2022-11-08T00:54:17.129Z,43.90
2022-11-08T00:55:26.141Z,43.90
2022-11-08T00:56:41.868Z,43.90
2022-11-08T00:57:59.199Z,43.90
2022-11-08T00:59:11.467Z,43.90
2022-11-08T01:01:02.330Z,43.90
2022-11-08T01:02:28.533Z,43.90
2022-11-08T01:03:39.632Z,43.90
2022-11-08T01:04:46.226Z,43.90
2022-11-08T01:06:04.431Z,43.90
2022-11-08T01:07:07.915Z,43.90
2022-11-08T01:08:18.904Z,43.90
2022-11-08T01:09:27.585Z,43.90
2022-11-08T01:10:33.515Z,43.90
2022-11-08T01:11:38.231Z,43.90
2022-11-08T01:12:49.209Z,43.90
2022-11-08T01:14:00.871Z,43.90
2022-11-08T01:15:07.682Z,43.90
2022-11-08T01:16:25.058Z,43.90
2022-11-08T01:17:33.564Z,43.90
2022-11-08T01:18:39.028Z,43.90
2022-11-08T01:19:46.433Z,43.90
2022-11-08T01:20:55.014Z,43.80
2022-11-08T01:22:02.053Z,43.90
2022-11-08T01:23:06.001Z,43.90
2022-11-08T01:24:27.021Z,43.90
2022-11-08T01:25:37.633Z,43.90
2022-11-08T01:26:41.971Z,43.90
2022-11-08T01:27:47.868Z,44.50
2022-11-08T01:28:53.956Z,43.90
2022-11-08T01:31:24.306Z,43.90
2022-11-08T01:32:34.794Z,43.80
2022-11-08T01:33:54.908Z,43.90
2022-11-08T01:35:00.741Z,43.90
2022-11-08T01:36:09.119Z,43.90
2022-11-08T01:37:32.647Z,43.90
2022-11-08T01:38:36.498Z,43.90
2022-11-08T01:39:39.621Z,43.90
2022-11-08T01:40:46.079Z,43.90
2022-11-08T01:41:55.934Z,43.90
2022-11-08T01:42:59.203Z,43.90
2022-11-08T01:44:05.742Z,43.90
2022-11-08T01:45:15.605Z,43.90
2022-11-08T01:46:39.450Z,43.90
2022-11-08T01:47:49.921Z,43.90
2022-11-08T01:50:35.162Z,43.90
2022-11-08T01:51:47.083Z,43.90
2022-11-08T01:53:14.810Z,43.80
2022-11-08T01:54:28.292Z,43.80
2022-11-08T01:55:36.863Z,43.90
2022-11-08T01:56:41.162Z,43.90
2022-11-08T01:58:18.738Z,43.90
2022-11-08T01:59:22.897Z,43.90
2022-11-08T02:00:31.417Z,43.90
2022-11-08T02:01:37.351Z,43.90
2022-11-08T02:02:45.957Z,43.90
2022-11-08T02:03:57.063Z,43.90
2022-11-08T02:05:00.987Z,43.90
2022-11-08T02:06:05.993Z,43.90
2022-11-08T02:07:30.929Z,43.90
2022-11-08T02:08:43.020Z,43.80
2022-11-08T02:09:50.429Z,43.90
2022-11-08T02:10:59.753Z,43.90
2022-11-08T02:12:11.256Z,43.90
2022-11-08T02:13:30.181Z,43.90
2022-11-08T02:14:42.677Z,43.90
2022-11-08T02:16:02.370Z,43.90
2022-11-08T02:17:07.906Z,43.90
2022-11-08T02:18:15.795Z,43.80
2022-11-08T02:19:39.436Z,43.90
2022-11-08T02:20:52.230Z,43.90
2022-11-08T02:22:04.122Z,43.90
2022-11-08T02:23:26.004Z,43.90
2022-11-08T02:24:30.224Z,43.90
2022-11-08T02:25:33.127Z,43.90
2022-11-08T02:26:58.464Z,43.90
2022-11-08T02:28:08.418Z,43.90
2022-11-08T02:29:36.715Z,43.90
2022-11-08T02:30:42.439Z,43.90
2022-11-08T02:31:51.808Z,43.90
2022-11-08T02:33:01.107Z,43.90
2022-11-08T02:34:20.671Z,43.90
2022-11-08T02:35:35.089Z,43.90
2022-11-08T02:36:41.431Z,43.90
2022-11-08T02:37:46.885Z,43.90
2022-11-08T02:38:56.364Z,43.90
2022-11-08T02:40:10.014Z,43.90
2022-11-08T02:41:17.987Z,43.90
2022-11-08T02:42:45.979Z,43.90
2022-11-08T02:43:53.578Z,43.90
2022-11-08T02:45:10.954Z,43.90
2022-11-08T02:46:27.683Z,43.90
2022-11-08T02:47:31.206Z,43.90
2022-11-08T02:48:37.314Z,43.80
2022-11-08T02:49:43.197Z,43.90
2022-11-08T02:50:49.469Z,43.90
2022-11-08T02:52:16.024Z,43.90
2022-11-08T02:53:25.192Z,43.90
2022-11-08T02:54:28.911Z,43.90
2022-11-08T02:55:41.651Z,43.90
2022-11-08T02:56:50.602Z,43.90
2022-11-08T02:57:54.634Z,43.90
2022-11-08T02:59:22.964Z,43.90
2022-11-08T03:00:26.559Z,43.80
2022-11-08T03:01:31.987Z,43.80
2022-11-08T03:02:59.673Z,43.90
2022-11-08T03:04:10.863Z,43.90
2022-11-08T03:05:25.918Z,43.90
2022-11-08T03:06:48.658Z,43.90
2022-11-08T03:07:53.540Z,43.90
2022-11-08T03:08:59.035Z,43.90
2022-11-08T03:10:07.704Z,43.90
2022-11-08T03:11:13.505Z,43.90
2022-11-08T03:12:20.971Z,43.90
2022-11-08T03:13:26.464Z,43.90
2022-11-08T03:14:50.753Z,43.80
2022-11-08T03:15:59.203Z,43.90
2022-11-08T03:17:07.029Z,43.90
2022-11-08T03:18:15.650Z,43.90
2022-11-08T03:19:23.302Z,43.90
2022-11-08T03:20:33.186Z,44.60
2022-11-08T03:21:39.564Z,43.80
2022-11-08T03:22:42.952Z,43.90
2022-11-08T03:23:48.499Z,43.90
2022-11-08T03:24:58.359Z,43.90
2022-11-08T03:26:07.009Z,43.80
2022-11-08T03:27:12.133Z,43.90
2022-11-08T03:28:23.115Z,43.90
2022-11-08T03:29:27.499Z,43.90
2022-11-08T03:30:31.515Z,43.90
2022-11-08T03:31:41.802Z,43.90
2022-11-08T03:32:47.169Z,43.90
2022-11-08T03:33:54.134Z,43.90
2022-11-08T03:34:59.669Z,43.90
2022-11-08T03:36:20.196Z,43.90
2022-11-08T03:37:23.976Z,43.80
2022-11-08T03:38:26.777Z,43.90
2022-11-08T03:39:36.012Z,43.90
2022-11-08T03:40:45.726Z,43.80
2022-11-08T03:43:34.064Z,43.90
2022-11-08T03:44:38.891Z,43.90
2022-11-08T03:45:47.312Z,43.90
2022-11-08T03:47:04.690Z,43.90
2022-11-08T03:48:10.776Z,43.90
2022-11-08T03:49:19.376Z,43.90
2022-11-08T03:50:35.892Z,43.90
2022-11-08T03:51:38.481Z,43.90
2022-11-08T03:52:48.479Z,43.90
2022-11-08T03:53:52.054Z,43.90
2022-11-08T03:54:57.146Z,43.90
2022-11-08T03:56:07.967Z,43.90
2022-11-08T03:57:10.540Z,43.80
2022-11-08T03:58:22.242Z,43.90
2022-11-08T03:59:26.762Z,43.90
2022-11-08T04:00:32.382Z,43.90
2022-11-08T04:01:44.109Z,43.90
2022-11-08T04:02:49.759Z,43.90
2022-11-08T04:03:57.789Z,43.90
2022-11-08T04:05:04.674Z,43.90
2022-11-08T04:06:09.022Z,43.90
2022-11-08T04:07:18.146Z,43.90
2022-11-08T04:08:24.725Z,43.90
2022-11-08T04:09:35.462Z,43.90
2022-11-08T04:10:41.444Z,43.90
2022-11-08T04:12:04.362Z,43.90
2022-11-08T04:13:36.077Z,44.50
2022-11-08T04:14:59.822Z,43.90
2022-11-08T04:16:06.950Z,43.90
2022-11-08T04:17:10.937Z,43.90
2022-11-08T04:18:34.997Z,43.90
2022-11-08T04:19:58.103Z,43.80
2022-11-08T04:21:21.015Z,43.90
2022-11-08T04:22:25.981Z,43.90
2022-11-08T04:23:40.580Z,43.90
2022-11-08T04:24:43.398Z,43.90
2022-11-08T04:26:06.577Z,43.90
2022-11-08T04:27:13.475Z,43.90
2022-11-08T04:28:18.862Z,43.90
2022-11-08T04:29:21.886Z,43.90
2022-11-08T04:30:28.641Z,43.90
2022-11-08T04:31:36.972Z,43.90
2022-11-08T04:32:47.029Z,44.00
2022-11-08T04:33:54.596Z,43.90
2022-11-08T04:35:03.208Z,43.90
2022-11-08T04:37:31.960Z,43.90
2022-11-08T04:38:37.390Z,43.90
2022-11-08T04:39:46.012Z,43.90
2022-11-08T04:40:49.101Z,43.90
2022-11-08T04:42:01.874Z,43.90
2022-11-08T04:43:10.086Z,43.90
2022-11-08T04:44:17.144Z,43.90
2022-11-08T04:45:29.031Z,43.90
2022-11-08T04:46:34.333Z,43.90
2022-11-08T04:47:47.209Z,44.00
2022-11-08T04:49:01.076Z,44.00
2022-11-08T04:50:09.475Z,44.00
2022-11-08T04:51:23.011Z,43.90
2022-11-08T04:52:25.971Z,43.90
2022-11-08T04:53:29.278Z,44.00
2022-11-08T04:54:52.725Z,43.90
2022-11-08T04:56:19.557Z,43.90
2022-11-08T04:57:25.063Z,43.90
2022-11-08T04:58:55.033Z,43.90
2022-11-08T04:59:58.371Z,44.50
2022-11-08T05:01:09.176Z,44.00
2022-11-08T05:02:35.049Z,44.00
2022-11-08T05:03:53.888Z,44.00
2022-11-08T05:05:06.571Z,44.00
2022-11-08T05:06:26.739Z,44.00
2022-11-08T05:07:29.941Z,44.00
2022-11-08T05:08:37.618Z,44.00
2022-11-08T05:10:02.546Z,44.00
2022-11-08T05:11:14.017Z,44.10
2022-11-08T05:12:23.662Z,44.00
2022-11-08T05:13:34.874Z,44.10
2022-11-08T05:14:48.100Z,44.00
2022-11-08T05:15:52.106Z,44.10
2022-11-08T05:16:56.470Z,44.70
2022-11-08T05:18:00.820Z,44.00
2022-11-08T05:19:10.505Z,44.00
2022-11-08T05:20:33.957Z,44.10
2022-11-08T05:21:58.855Z,44.10
2022-11-08T05:24:42.911Z,44.10
2022-11-08T05:25:57.965Z,44.10
2022-11-08T05:27:15.473Z,44.10
2022-11-08T05:28:29.221Z,44.10
2022-11-08T05:29:34.822Z,44.20
2022-11-08T05:30:42.914Z,44.10
2022-11-08T05:31:46.311Z,44.20
2022-11-08T05:32:52.877Z,44.20
2022-11-08T05:34:01.061Z,44.10
2022-11-08T05:35:08.292Z,44.20
2022-11-08T05:36:20.367Z,44.20
2022-11-08T05:37:27.136Z,44.20
2022-11-08T05:38:35.027Z,44.20
2022-11-08T05:39:39.314Z,44.20
2022-11-08T05:40:48.194Z,44.30
2022-11-08T05:41:51.124Z,44.30
2022-11-08T05:42:55.004Z,44.20
2022-11-08T05:44:01.712Z,44.30
2022-11-08T05:45:27.265Z,44.30
2022-11-08T05:46:37.779Z,44.20
2022-11-08T05:48:03.840Z,44.80
2022-11-08T05:49:06.985Z,44.30
2022-11-08T05:50:18.278Z,44.30
2022-11-08T05:51:27.084Z,44.20
2022-11-08T05:52:30.279Z,44.30
2022-11-08T05:53:36.423Z,44.30
2022-11-08T05:54:39.434Z,44.30
2022-11-08T05:55:44.265Z,44.30
2022-11-08T05:58:25.958Z,44.30
2022-11-08T05:59:30.279Z,44.30
2022-11-08T06:00:37.164Z,44.30
2022-11-08T06:01:41.504Z,44.30
2022-11-08T06:02:49.658Z,44.40
2022-11-08T06:03:57.311Z,44.40
2022-11-08T06:05:00.981Z,44.40
2022-11-08T06:06:09.216Z,44.40
2022-11-08T06:07:15.291Z,44.40
2022-11-08T06:08:21.131Z,44.40
2022-11-08T06:09:24.994Z,44.40
2022-11-08T06:10:29.006Z,44.40
2022-11-08T06:11:33.967Z,44.40
2022-11-08T06:12:46.543Z,44.40
2022-11-08T06:13:52.609Z,44.50
2022-11-08T06:15:01.258Z,44.40
2022-11-08T06:16:07.214Z,44.40
2022-11-08T06:17:12.751Z,44.50
2022-11-08T06:18:17.894Z,44.40
2022-11-08T06:19:26.227Z,44.50
2022-11-08T06:20:35.945Z,44.40
2022-11-08T06:21:41.579Z,45.00
2022-11-08T06:22:45.495Z,44.50
2022-11-08T06:23:56.756Z,44.50
2022-11-08T06:25:24.655Z,44.50
2022-11-08T06:26:32.290Z,44.50
2022-11-08T06:27:36.563Z,44.50
2022-11-08T06:28:44.169Z,44.50
2022-11-08T06:30:04.527Z,44.50
2022-11-08T06:31:14.271Z,44.50
2022-11-08T06:32:21.378Z,44.50
2022-11-08T06:33:28.811Z,44.60
2022-11-08T06:36:07.536Z,44.50
2022-11-08T06:37:22.265Z,44.50
2022-11-08T06:38:27.807Z,44.50
2022-11-08T06:39:31.857Z,44.60
2022-11-08T06:40:39.188Z,44.50
2022-11-08T06:41:50.489Z,44.50
2022-11-08T06:42:55.812Z,44.50
2022-11-08T06:45:17.318Z,44.60
2022-11-08T06:46:21.458Z,44.50
2022-11-08T06:47:25.514Z,44.50
2022-11-08T06:48:34.023Z,44.50
2022-11-08T06:49:43.848Z,44.50
2022-11-08T06:50:53.392Z,44.50
2022-11-08T06:52:05.223Z,44.50
2022-11-08T06:53:14.920Z,44.50
2022-11-08T06:54:35.542Z,44.50
2022-11-08T06:55:46.333Z,44.40
2022-11-08T06:56:55.767Z,44.50
2022-11-08T06:57:58.847Z,44.50
2022-11-08T06:59:03.906Z,44.40
2022-11-08T07:00:11.764Z,44.50
2022-11-08T07:01:14.828Z,44.40
2022-11-08T07:02:26.018Z,44.40
2022-11-08T07:03:35.133Z,44.40
2022-11-08T07:04:40.408Z,44.40
2022-11-08T07:05:50.758Z,44.40
2022-11-08T07:06:59.887Z,44.40
2022-11-08T07:08:08.298Z,44.40
2022-11-08T07:09:17.544Z,44.40
2022-11-08T07:10:29.168Z,45.00
2022-11-08T07:13:05.146Z,44.40
2022-11-08T07:14:12.588Z,44.40
2022-11-08T07:15:15.806Z,44.40
2022-11-08T07:16:22.045Z,44.40
2022-11-08T07:17:26.576Z,44.40
2022-11-08T07:18:36.067Z,44.40
2022-11-08T07:19:39.704Z,44.30
2022-11-08T07:20:45.584Z,44.30
2022-11-08T07:21:55.133Z,44.30
2022-11-08T07:22:59.612Z,44.40
2022-11-08T07:24:04.816Z,44.30
2022-11-08T07:25:15.821Z,44.30
2022-11-08T07:26:23.064Z,44.30
2022-11-08T07:27:30.419Z,44.30
2022-11-08T07:28:37.385Z,44.30
2022-11-08T07:29:42.238Z,44.40
2022-11-08T07:30:46.025Z,44.30
2022-11-08T07:31:54.877Z,44.40
2022-11-08T07:32:59.360Z,44.30
2022-11-08T07:34:14.547Z,44.40
2022-11-08T07:35:21.406Z,44.30
2022-11-08T07:36:33.980Z,44.20
2022-11-08T07:37:42.216Z,44.30
2022-11-08T07:38:50.469Z,44.20
2022-11-08T07:39:56.141Z,44.30
2022-11-08T07:41:09.711Z,44.30
2022-11-08T07:42:14.958Z,44.80
2022-11-08T07:43:20.254Z,44.30
2022-11-08T07:44:26.066Z,44.20
2022-11-08T07:45:35.788Z,44.20
2022-11-08T07:46:48.711Z,44.20
2022-11-08T07:49:27.770Z,44.20
2022-11-08T07:50:32.484Z,44.20
2022-11-08T07:51:47.865Z,44.20
2022-11-08T07:52:55.927Z,44.20
2022-11-08T07:54:03.248Z,44.20
2022-11-08T07:55:14.651Z,44.20
2022-11-08T07:56:28.811Z,44.10
2022-11-08T07:57:37.931Z,44.10
2022-11-08T07:58:49.810Z,44.10
2022-11-08T07:59:53.226Z,44.10
2022-11-08T08:01:07.721Z,44.10
2022-11-08T08:02:16.867Z,44.20
2022-11-08T08:03:27.883Z,44.10
2022-11-08T08:04:38.395Z,44.10
2022-11-08T08:05:49.296Z,44.10
2022-11-08T08:06:58.679Z,44.00
2022-11-08T08:08:08.884Z,44.00
2022-11-08T08:09:16.654Z,44.00
2022-11-08T08:10:21.653Z,44.00
2022-11-08T08:11:33.339Z,44.00
2022-11-08T08:12:37.014Z,44.00
2022-11-08T08:13:51.330Z,44.00
2022-11-08T08:15:00.430Z,44.00
2022-11-08T08:16:08.420Z,44.00
2022-11-08T08:17:18.739Z,44.00
2022-11-08T08:18:42.716Z,44.00
2022-11-08T08:21:25.849Z,43.90
2022-11-08T08:22:29.656Z,43.90
2022-11-08T08:23:37.958Z,43.90
2022-11-08T08:25:11.109Z,43.90
2022-11-08T08:26:13.805Z,44.00
2022-11-08T08:27:18.689Z,43.90
2022-11-08T08:28:23.692Z,43.90
2022-11-08T08:29:32.554Z,43.90
2022-11-08T08:31:06.983Z,43.90
2022-11-08T08:32:09.900Z,43.90
2022-11-08T08:33:31.403Z,43.90
2022-11-08T08:34:36.870Z,43.80
2022-11-08T08:35:44.995Z,43.80
2022-11-08T08:36:48.193Z,43.80
2022-11-08T08:38:07.285Z,43.90
2022-11-08T08:39:13.569Z,43.90
2022-11-08T08:40:22.248Z,43.80
2022-11-08T08:41:30.085Z,43.80
2022-11-08T08:42:45.696Z,43.80
2022-11-08T08:44:11.435Z,43.80
2022-11-08T08:46:13.190Z,43.80
2022-11-08T08:47:38.554Z,43.80
2022-11-08T08:48:58.017Z,43.80
2022-11-08T08:50:20.422Z,43.80
2022-11-08T08:52:04.056Z,44.40
2022-11-08T08:53:22.473Z,43.70
2022-11-08T08:54:37.769Z,43.80
2022-11-08T08:55:53.124Z,43.80
2022-11-08T08:57:18.227Z,43.70
2022-11-08T08:58:31.501Z,43.70
2022-11-08T09:03:17.322Z,43.70
2022-11-08T09:04:33.477Z,43.70
2022-11-08T09:05:48.289Z,43.60
2022-11-08T09:06:51.588Z,43.60
2022-11-08T09:07:59.042Z,43.60
2022-11-08T09:09:10.609Z,43.70
2022-11-08T09:10:14.267Z,43.70
2022-11-08T09:11:18.227Z,43.60
2022-11-08T09:12:24.591Z,43.60
2022-11-08T09:13:35.554Z,43.70
2022-11-08T09:14:40.665Z,43.60
2022-11-08T09:17:07.019Z,43.70
2022-11-08T09:18:10.729Z,43.60
2022-11-08T09:19:14.199Z,43.60
2022-11-08T09:20:19.651Z,43.60
2022-11-08T09:21:24.766Z,43.60
2022-11-08T09:23:58.992Z,43.60
2022-11-08T09:25:04.685Z,43.60
2022-11-08T09:26:08.961Z,43.50
2022-11-08T09:27:17.286Z,43.50
2022-11-08T09:28:30.748Z,43.50
2022-11-08T09:29:34.746Z,43.50
2022-11-08T09:30:38.851Z,43.50
2022-11-08T09:31:44.439Z,43.50
2022-11-08T09:33:05.992Z,43.50
2022-11-08T09:34:16.228Z,43.50
2022-11-08T09:35:24.703Z,43.40
2022-11-08T09:36:31.237Z,43.40
2022-11-08T09:37:37.942Z,43.40
2022-11-08T09:38:46.457Z,43.40
2022-11-08T09:39:55.496Z,43.40
2022-11-08T09:41:22.520Z,43.40
2022-11-08T09:43:01.931Z,43.30
2022-11-08T09:44:39.020Z,43.30
2022-11-08T09:45:47.992Z,43.30
2022-11-08T09:47:03.968Z,43.30
2022-11-08T09:48:16.085Z,43.30
2022-11-08T09:49:45.253Z,43.30
2022-11-08T09:50:49.551Z,43.20
2022-11-08T09:51:59.063Z,43.20
2022-11-08T09:53:21.153Z,43.20
2022-11-08T09:54:38.988Z,43.20
2022-11-08T09:55:52.554Z,43.20
2022-11-08T09:56:55.808Z,43.20
2022-11-08T09:58:15.890Z,43.20
2022-11-08T09:59:28.655Z,43.80
2022-11-08T10:00:34.646Z,43.20
2022-11-08T10:01:40.370Z,43.20
2022-11-08T10:02:43.067Z,43.20
2022-11-08T10:04:00.259Z,43.20
2022-11-08T10:05:15.757Z,43.20
2022-11-08T10:06:56.869Z,43.20
2022-11-08T10:08:11.376Z,43.10
2022-11-08T10:09:35.237Z,43.70
2022-11-08T10:10:58.125Z,43.10
2022-11-08T10:12:30.363Z,43.10
2022-11-08T10:14:23.991Z,43.00
2022-11-08T10:15:58.682Z,43.00
2022-11-08T10:17:25.788Z,43.00
2022-11-08T10:19:00.659Z,43.00
2022-11-08T10:20:28.762Z,43.10
2022-11-08T10:21:46.532Z,43.00
2022-11-08T10:23:20.352Z,43.00
2022-11-08T10:24:54.988Z,43.00
2022-11-08T10:26:14.778Z,43.00
2022-11-08T10:27:36.281Z,43.00
2022-11-08T10:28:50.594Z,43.00
2022-11-08T10:30:00.947Z,43.00
2022-11-08T10:31:17.070Z,43.00
2022-11-08T10:32:31.547Z,43.00
2022-11-08T10:35:12.668Z,43.00
2022-11-08T10:36:42.502Z,43.60
2022-11-08T10:37:47.913Z,43.00
2022-11-08T10:39:01.746Z,43.00
2022-11-08T10:40:13.669Z,43.00
2022-11-08T10:41:30.565Z,42.90
2022-11-08T10:42:45.139Z,43.00
2022-11-08T10:44:23.186Z,43.00
2022-11-08T10:46:57.379Z,43.00
2022-11-08T10:49:45.444Z,43.00
2022-11-08T10:50:52.938Z,42.90
2022-11-08T10:52:02.674Z,42.90
2022-11-08T10:53:27.650Z,42.90
2022-11-08T10:55:27.546Z,42.90
2022-11-08T10:57:01.133Z,42.90
2022-11-08T10:58:45.677Z,42.90
2022-11-08T11:00:04.592Z,42.90
2022-11-08T11:01:19.522Z,42.90
2022-11-08T11:02:36.800Z,42.90
2022-11-08T11:03:47.617Z,42.90
2022-11-08T11:05:15.563Z,42.90
2022-11-08T11:06:36.990Z,42.80
2022-11-08T11:08:02.016Z,42.90
2022-11-08T11:09:38.649Z,42.80
2022-11-08T11:12:30.034Z,42.90
2022-11-08T11:13:35.706Z,42.80
2022-11-08T11:14:41.846Z,42.80
2022-11-08T11:15:58.993Z,42.80
2022-11-08T11:17:16.587Z,43.40
2022-11-08T11:18:30.698Z,42.80
2022-11-08T11:19:37.589Z,42.80
2022-11-08T11:20:43.697Z,42.80
2022-11-08T11:21:56.148Z,42.80
2022-11-08T11:23:01.419Z,42.80
2022-11-08T11:25:39.609Z,42.80
2022-11-08T11:26:46.336Z,42.80
2022-11-08T11:28:01.971Z,42.80
2022-11-08T11:29:04.920Z,42.80
2022-11-08T11:30:51.003Z,42.80
2022-11-08T11:32:00.206Z,42.80
2022-11-08T11:33:24.143Z,42.90
2022-11-08T11:34:39.768Z,42.80
2022-11-08T11:35:58.850Z,42.90
2022-11-08T11:37:19.057Z,42.90
2022-11-08T11:38:54.011Z,42.90
2022-11-08T11:40:07.675Z,42.90
2022-11-08T11:41:20.050Z,42.90
2022-11-08T11:42:47.736Z,42.90
2022-11-08T11:44:17.930Z,42.90
2022-11-08T11:45:44.678Z,42.90
2022-11-08T11:47:30.701Z,42.90
2022-11-08T11:48:41.907Z,42.90
2022-11-08T11:49:50.009Z,42.90
2022-11-08T11:50:53.372Z,42.90
2022-11-08T11:51:59.029Z,42.90
2022-11-08T11:53:06.364Z,42.90
2022-11-08T11:54:17.236Z,42.90
2022-11-08T11:55:45.697Z,42.90
2022-11-08T11:57:14.027Z,42.90
2022-11-08T11:58:44.096Z,42.90
2022-11-08T12:00:04.998Z,42.90
2022-11-08T12:01:39.756Z,42.90
2022-11-08T12:03:12.806Z,42.90
2022-11-08T12:04:46.470Z,42.90
2022-11-08T12:06:10.346Z,42.90
2022-11-08T12:07:37.824Z,42.90
2022-11-08T12:09:08.697Z,42.90
2022-11-08T12:10:25.111Z,42.90
2022-11-08T12:11:40.738Z,42.90
2022-11-08T12:13:09.710Z,42.90
2022-11-08T12:14:25.764Z,42.90
2022-11-08T12:15:56.979Z,42.90
2022-11-08T12:17:08.330Z,42.90
2022-11-08T12:18:36.697Z,42.90
2022-11-08T12:20:14.594Z,42.90
2022-11-08T12:21:26.063Z,42.80
2022-11-08T12:22:52.670Z,42.90
2022-11-08T12:24:19.735Z,42.90
2022-11-08T12:25:56.538Z,42.80
2022-11-08T12:27:22.403Z,42.80
2022-11-08T12:28:42.300Z,42.80
2022-11-08T12:30:09.626Z,42.80
2022-11-08T12:31:21.697Z,42.80
2022-11-08T12:32:44.729Z,42.80
2022-11-08T12:34:18.971Z,42.80
2022-11-08T12:35:37.742Z,42.70
2022-11-08T12:37:22.943Z,42.70
2022-11-08T12:38:27.900Z,43.20
2022-11-08T12:39:59.656Z,42.60
2022-11-08T12:41:17.296Z,43.40
2022-11-08T12:43:05.725Z,44.00
2022-11-08T12:44:39.617Z,44.40
2022-11-08T12:45:56.650Z,44.60
2022-11-08T12:47:40.419Z,44.50
2022-11-08T12:49:20.651Z,43.00
2022-11-08T12:50:45.091Z,42.70
2022-11-08T12:52:01.773Z,42.80
2022-11-08T12:53:40.252Z,42.80
2022-11-08T12:54:58.062Z,42.70
2022-11-08T12:56:14.792Z,42.50
2022-11-08T12:57:21.120Z,42.60
2022-11-08T12:58:47.018Z,42.40
2022-11-08T13:00:18.463Z,42.40
2022-11-08T13:01:23.401Z,42.50
2022-11-08T13:02:32.232Z,42.40
2022-11-08T13:04:11.804Z,42.50
2022-11-08T13:05:27.305Z,42.30
2022-11-08T13:06:46.232Z,42.10
2022-11-08T13:08:06.385Z,42.10
2022-11-08T13:09:27.810Z,42.00
2022-11-08T13:10:45.700Z,42.00
2022-11-08T13:12:16.333Z,42.10
2022-11-08T13:13:36.616Z,42.10
2022-11-08T13:14:42.656Z,42.10
2022-11-08T13:16:10.027Z,42.10
2022-11-08T13:17:26.162Z,42.10
2022-11-08T13:18:42.554Z,42.10
2022-11-08T13:19:47.725Z,42.20
2022-11-08T13:20:50.881Z,42.00
2022-11-08T13:21:56.369Z,42.10
2022-11-08T13:23:01.917Z,42.00
2022-11-08T13:24:30.469Z,42.10
2022-11-08T13:25:42.817Z,42.10
2022-11-08T13:26:46.912Z,42.70
2022-11-08T13:27:50.786Z,42.20
2022-11-08T13:28:54.736Z,42.10
2022-11-08T13:30:20.930Z,42.00
2022-11-08T13:31:41.214Z,41.90
2022-11-08T13:33:34.074Z,41.90
2022-11-08T13:34:50.241Z,41.90
2022-11-08T13:36:15.594Z,41.70
2022-11-08T13:37:30.966Z,41.70
2022-11-08T13:38:42.347Z,41.80
2022-11-08T13:40:06.373Z,41.80
2022-11-08T13:41:20.006Z,41.80
2022-11-08T13:42:25.050Z,41.90
2022-11-08T13:43:39.210Z,42.20
2022-11-08T13:45:12.096Z,42.40
2022-11-08T13:46:20.177Z,42.30
2022-11-08T13:47:34.602Z,42.20
2022-11-08T13:48:40.880Z,42.20
2022-11-08T13:49:47.925Z,42.10
2022-11-08T13:50:57.204Z,42.00
2022-11-08T13:52:43.701Z,42.10
2022-11-08T13:53:49.951Z,41.90
2022-11-08T13:54:52.823Z,41.90
2022-11-08T13:55:58.124Z,41.90
2022-11-08T13:57:02.313Z,41.90
2022-11-08T13:58:28.898Z,41.80
2022-11-08T13:59:33.385Z,41.90
2022-11-08T14:00:46.641Z,41.80
2022-11-08T14:01:49.117Z,41.80
2022-11-08T14:02:53.114Z,41.70
2022-11-08T14:03:57.415Z,41.80
2022-11-08T14:05:21.965Z,42.30
2022-11-08T14:07:02.831Z,41.60
2022-11-08T14:08:19.031Z,41.60
2022-11-08T14:09:39.341Z,41.60
2022-11-08T14:11:11.401Z,41.60
2022-11-08T14:12:15.970Z,41.60
2022-11-08T14:13:26.668Z,41.60
2022-11-08T14:14:38.661Z,41.60
2022-11-08T14:15:46.876Z,41.60
2022-11-08T14:17:28.761Z,41.60
2022-11-08T14:18:39.098Z,41.60
2022-11-08T14:19:44.986Z,41.60
2022-11-08T14:20:51.743Z,42.20
2022-11-08T14:22:01.696Z,41.60
2022-11-08T14:23:32.962Z,41.70
2022-11-08T14:24:37.250Z,41.60
2022-11-08T14:25:41.541Z,41.60
2022-11-08T14:26:49.216Z,41.60
2022-11-08T14:27:54.095Z,41.60
2022-11-08T14:28:59.979Z,41.50
2022-11-08T14:30:03.461Z,42.10
2022-11-08T14:31:24.212Z,41.40
2022-11-08T14:32:32.889Z,41.50
2022-11-08T14:33:44.252Z,41.40
2022-11-08T14:34:47.122Z,41.50
2022-11-08T14:36:06.768Z,41.40
2022-11-08T14:37:27.504Z,41.30
2022-11-08T14:38:45.238Z,41.40
2022-11-08T14:39:48.091Z,41.30
2022-11-08T14:41:04.162Z,41.30
2022-11-08T14:42:24.267Z,41.30
2022-11-08T14:43:27.513Z,41.30
2022-11-08T14:44:32.516Z,41.20
2022-11-08T14:45:38.407Z,41.20
2022-11-08T14:46:44.124Z,41.10
2022-11-08T14:47:51.752Z,41.10
2022-11-08T14:48:59.347Z,41.10
2022-11-08T14:50:04.863Z,41.10
2022-11-08T14:51:14.697Z,41.10
2022-11-08T14:52:25.481Z,41.00
2022-11-08T14:53:33.286Z,41.00
2022-11-08T14:54:47.113Z,41.00
2022-11-08T14:56:14.628Z,40.90
2022-11-08T14:57:42.578Z,40.90
2022-11-08T14:58:51.166Z,40.90
2022-11-08T14:59:57.079Z,40.90
2022-11-08T15:01:01.451Z,40.90
2022-11-08T15:02:05.226Z,40.90
2022-11-08T15:03:17.346Z,40.90
2022-11-08T15:04:25.972Z,40.90
2022-11-08T15:05:33.301Z,41.50
2022-11-08T15:06:44.191Z,40.90
2022-11-08T15:07:52.681Z,40.90
2022-11-08T15:08:58.567Z,41.00
2022-11-08T15:10:10.398Z,40.90
2022-11-08T15:11:53.333Z,41.00
2022-11-08T15:12:58.003Z,40.90
2022-11-08T15:14:05.765Z,40.90
2022-11-08T15:15:27.636Z,41.00
2022-11-08T15:16:41.488Z,40.90
2022-11-08T15:17:44.381Z,41.00
2022-11-08T15:18:48.216Z,40.90
2022-11-08T15:19:50.642Z,41.00
2022-11-08T15:21:22.756Z,41.00
2022-11-08T15:22:33.966Z,41.00
2022-11-08T15:23:54.358Z,40.90
2022-11-08T15:25:15.773Z,41.00
2022-11-08T15:26:28.014Z,41.00
2022-11-08T15:27:31.694Z,41.00
2022-11-08T15:28:37.008Z,41.00
2022-11-08T15:29:53.068Z,41.00
2022-11-08T15:31:00.948Z,41.00
2022-11-08T15:32:14.751Z,41.00
2022-11-08T15:33:26.017Z,40.90
2022-11-08T15:34:41.323Z,41.00
2022-11-08T15:35:47.059Z,41.00
2022-11-08T15:36:50.568Z,41.00
2022-11-08T15:38:00.986Z,41.00
2022-11-08T15:39:08.547Z,41.00
2022-11-08T15:40:27.230Z,41.00
2022-11-08T15:41:40.706Z,41.00
2022-11-08T15:42:45.130Z,41.00
2022-11-08T15:43:50.044Z,41.00
2022-11-08T15:45:15.684Z,41.00
2022-11-08T15:46:39.382Z,41.00
2022-11-08T15:47:41.723Z,41.00
2022-11-08T15:48:54.877Z,41.00
2022-11-08T15:50:12.815Z,41.00
2022-11-08T15:51:15.882Z,41.00
2022-11-08T15:52:21.424Z,41.00
2022-11-08T15:53:28.088Z,41.00
2022-11-08T15:54:32.246Z,41.00
2022-11-08T15:56:01.257Z,41.00
2022-11-08T15:57:09.085Z,41.10
2022-11-08T15:58:19.573Z,41.10
2022-11-08T15:59:27.594Z,41.10
2022-11-08T16:00:33.201Z,41.10
2022-11-08T16:01:39.837Z,41.10
2022-11-08T16:02:48.141Z,41.10
2022-11-08T16:03:50.667Z,41.10
2022-11-08T16:04:55.318Z,41.10
2022-11-08T16:06:05.199Z,41.10
2022-11-08T16:07:08.713Z,41.10
2022-11-08T16:08:19.705Z,41.10
2022-11-08T16:09:22.762Z,41.10
2022-11-08T16:10:34.768Z,41.10
2022-11-08T16:11:39.778Z,41.10
2022-11-08T16:14:06.490Z,41.10
2022-11-08T16:15:16.959Z,41.20